Airport View

Enter AWOS ICAO identifier for current METAR.

ex. KFNL

KRUT 202356Z AUTO 14005KT 10SM CLR 15/12 A3017 RMK AO2 SLP215 T01500122 10233 20150 53008 $

21 Sep 2019 00:40

Frequency: 118.375

Phone: 802-747-3044

Other Area AWOS: KVSF - K6B0 - KLEB - KGFL

TAF AMD KRUT 210016Z 2100/2124 14005KT P6SM FEW250 FM211200 19004KT P6SM SKC